Time;durP1;ratioP1;P1;durP2;ratioP2;P2;SDS_P1;SDS_P2;PMS_P1;PMS_P2;Temp;Humidity;BMP_temperature;BMP_pressure;BME280_temperature;BME280_humidity;BME280_pressure;Samples;Min_cycle;Max_cycle;Signal;HPM_P1;HPM_P2
2022/08/23 00:00:31;;;;;;;11.02;7.50;;;;;;;15.38;88.96;101258.09;5116448;28;20424;-42
2022/08/23 00:02:56;;;;;;;15.52;8.93;;;;;;;15.41;89.34;101258.13;5115354;28;20324;-43
2022/08/23 00:05:21;;;;;;;14.98;8.05;;;;;;;15.38;90.08;101252.91;5116522;28;20023;-44
2022/08/23 00:07:46;;;;;;;14.43;7.25;;;;;;;15.38;89.70;101255.50;5116519;28;20115;-42
2022/08/23 00:10:15;;;;;;;13.52;7.63;;;;;;;15.38;89.53;101257.25;5115230;28;20093;-42
2022/08/23 00:12:41;;;;;;;13.32;7.90;;;;;;;15.34;90.17;101253.72;5116452;28;20035;-42
2022/08/23 00:15:08;;;;;;;12.20;7.68;;;;;;;15.34;90.81;101253.72;5116150;28;20034;-43
2022/08/23 00:17:33;;;;;;;15.15;8.35;;;;;;;15.34;90.14;101252.81;5115135;28;20540;-43
2022/08/23 00:19:58;;;;;;;15.98;8.52;;;;;;;15.26;90.55;101250.09;5115927;28;20024;-46
2022/08/23 00:22:24;;;;;;;16.58;9.30;;;;;;;15.25;91.20;101250.97;5116351;28;20028;-42
2022/08/23 00:24:49;;;;;;;14.27;8.13;;;;;;;15.20;90.86;101247.41;5115203;28;20027;-46
2022/08/23 00:27:16;;;;;;;12.68;8.68;;;;;;;15.09;91.49;101248.13;5115775;28;20394;-44
2022/08/23 00:29:48;;;;;;;16.73;9.05;;;;;;;15.09;92.26;101253.31;5115993;28;20047;-43
2022/08/23 00:32:17;;;;;;;13.52;8.57;;;;;;;14.93;92.52;101246.94;5114906;28;20024;-43
2022/08/23 00:34:43;;;;;;;13.95;9.02;;;;;;;14.85;92.69;101240.75;5115887;28;20032;-42
2022/08/23 00:37:09;;;;;;;13.93;9.52;;;;;;;14.81;93.17;101249.34;5115449;28;20051;-44
2022/08/23 00:39:36;;;;;;;15.15;9.55;;;;;;;14.82;93.56;101246.75;5114939;28;20035;-46
2022/08/23 00:47:45;;;;;;;13.18;9.45;;;;;;;14.66;94.06;101249.91;5116040;28;20093;-43
2022/08/23 00:50:24;;;;;;;15.30;9.48;;;;;;;14.59;94.75;101253.19;5115466;28;20035;-43
2022/08/23 00:53:01;;;;;;;16.88;9.20;;;;;;;14.58;95.04;101251.47;5114680;27;20108;-42
2022/08/23 00:55:27;;;;;;;16.10;9.67;;;;;;;14.69;94.74;101255.13;5115589;28;20039;-43
2022/08/23 00:57:53;;;;;;;16.15;10.25;;;;;;;14.71;95.80;101258.66;5115502;28;20038;-44
2022/08/23 01:00:18;;;;;;;12.90;9.60;;;;;;;14.67;95.01;101254.25;5114436;28;20027;-45
2022/08/23 01:02:47;;;;;;;13.98;10.38;;;;;;;14.58;95.63;101261.84;5114842;27;20382;-42
2022/08/23 01:05:13;;;;;;;13.88;10.65;;;;;;;14.57;95.67;101262.66;5114959;28;20352;-47
2022/08/23 01:07:53;;;;;;;13.98;10.13;;;;;;;14.60;96.49;101254.94;5114347;28;20055;-43
2022/08/23 01:10:27;;;;;;;15.13;10.10;;;;;;;14.59;95.76;101263.56;5115097;28;20047;-42
2022/08/23 01:13:02;;;;;;;13.55;9.60;;;;;;;14.46;96.74;101263.34;5115207;28;20024;-43
2022/08/23 01:16:06;;;;;;;13.18;10.02;;;;;;;14.59;95.48;101253.19;5114330;28;20035;-43
2022/08/23 01:18:32;;;;;;;11.13;9.70;;;;;;;14.46;96.40;101255.56;5083152;28;20044;-43
2022/08/23 01:21:22;;;;;;;15.88;9.48;;;;;;;14.48;96.45;101252.97;5114305;28;20019;-44
2022/08/23 01:23:52;;;;;;;14.88;9.68;;;;;;;14.46;96.67;101259.84;5115350;28;20030;-46
2022/08/23 01:26:20;;;;;;;14.02;10.48;;;;;;;14.45;97.62;101261.56;5114496;28;20030;-46
2022/08/23 01:28:45;;;;;;;14.57;10.10;;;;;;;14.34;97.48;101257.88;5114412;28;20382;-43
2022/08/23 01:31:12;;;;;;;14.63;11.45;;;;;;;14.24;97.75;101256.84;5114765;28;20471;-42
2022/08/23 01:33:40;;;;;;;16.13;11.87;;;;;;;14.19;97.93;101257.56;5114644;28;20592;-45
2022/08/23 01:36:08;;;;;;;;;;;;;;;14.37;94.00;101259.66;5114111;28;20647;-43
2022/08/23 01:38:34;;;;;;;15.27;10.98;;;;;;;14.24;97.73;101250.75;5114273;28;19922;-42
2022/08/23 01:41:00;;;;;;;17.85;12.30;;;;;;;14.23;98.24;101254.19;5114527;28;20020;-42
2022/08/23 01:43:25;;;;;;;18.15;11.85;;;;;;;14.12;98.55;101257.41;5113491;28;20025;-42
2022/08/23 01:45:51;;;;;;;16.67;11.85;;;;;;;14.10;98.92;101259.13;5114401;28;20035;-48
2022/08/23 01:48:18;;;;;;;18.00;11.88;;;;;;;14.13;99.24;101254.00;5113519;28;20050;-44
2022/08/23 01:50:45;;;;;;;18.33;11.82;;;;;;;14.14;99.47;101257.47;5114453;28;20023;-43
2022/08/23 01:53:12;;;;;;;17.10;11.30;;;;;;;14.07;100.00;101253.00;5114147;28;20052;-44
2022/08/23 01:55:39;;;;;;;15.93;11.25;;;;;;;14.10;100.00;101247.84;5113625;28;20019;-43
2022/08/23 01:58:05;;;;;;;17.55;11.60;;;;;;;14.15;100.00;101256.63;5114037;28;20152;-42
2022/08/23 02:00:34;;;;;;;14.93;11.23;;;;;;;14.12;100.00;101254.81;5114035;28;20037;-42
2022/08/23 02:03:00;;;;;;;16.90;11.50;;;;;;;14.08;100.00;101258.19;5113471;28;20031;-43
2022/08/23 02:05:26;;;;;;;16.30;11.88;;;;;;;14.21;100.00;101266.25;5113803;28;20401;-42
2022/08/23 02:07:52;;;;;;;17.02;13.98;;;;;;;14.33;100.00;101266.50;5114112;28;20027;-46
2022/08/23 02:10:18;;;;;;;22.10;15.00;;;;;;;14.42;100.00;101271.00;5113318;28;20042;-43
2022/08/23 02:12:45;;;;;;;25.27;15.45;;;;;;;14.56;100.00;101263.50;5114107;28;20034;-44
2022/08/23 02:15:11;;;;;;;20.42;16.27;;;;;;;14.55;100.00;101266.94;5113047;28;20135;-45
2022/08/23 02:17:36;;;;;;;24.35;16.33;;;;;;;14.64;99.61;101264.56;5112881;28;20052;-45
2022/08/23 02:20:04;;;;;;;20.98;14.95;;;;;;;14.71;99.36;101263.84;5113848;28;20033;-43
2022/08/23 02:22:29;;;;;;;17.85;14.38;;;;;;;14.69;98.81;101264.66;5113403;28;20079;-42
2022/08/23 02:24:54;;;;;;;16.90;13.88;;;;;;;14.68;98.53;101263.78;5112969;28;20494;-45
2022/08/23 02:27:20;;;;;;;22.08;13.80;;;;;;;14.67;97.97;101262.03;5113662;28;20027;-43
2022/08/23 02:29:45;;;;;;;17.05;13.98;;;;;;;14.65;98.55;101261.13;5113848;28;20031;-42
2022/08/23 02:32:14;;;;;;;18.50;14.00;;;;;;;14.63;98.69;101260.19;5112855;28;20420;-42
2022/08/23 02:34:40;;;;;;;17.95;13.82;;;;;;;14.64;98.39;101261.97;5113380;28;20382;-43
2022/08/23 02:37:07;;;;;;;15.45;13.80;;;;;;;14.65;97.98;101258.53;5113228;28;20049;-45
2022/08/23 02:39:33;;;;;;;;;;;;;;;14.72;95.72;101268.19;5113159;28;20023;-45
2022/08/23 02:41:59;;;;;;;20.98;14.30;;;;;;;14.56;98.60;101266.09;5113649;28;19907;-42
2022/08/23 02:44:25;;;;;;;20.95;14.43;;;;;;;14.41;99.62;101269.25;5113432;28;20043;-42
2022/08/23 02:46:50;;;;;;;16.60;13.25;;;;;;;14.30;100.00;101269.03;5112799;28;20499;-43
2022/08/23 02:49:16;;;;;;;17.85;14.98;;;;;;;14.27;100.00;101274.16;5113403;28;20035;-43
2022/08/23 02:51:42;;;;;;;21.88;14.68;;;;;;;14.28;100.00;101268.13;5112528;28;20028;-46
2022/08/23 02:54:07;;;;;;;15.70;13.45;;;;;;;14.30;100.00;101272.50;5113573;28;20031;-41
2022/08/23 02:56:33;;;;;;;17.77;14.45;;;;;;;14.32;100.00;101278.59;5113265;28;20367;-42
2022/08/23 02:58:58;;;;;;;19.38;14.77;;;;;;;14.23;100.00;101272.31;5112575;28;20037;-43
2022/08/23 03:01:29;;;;;;;18.25;14.13;;;;;;;14.12;100.00;101275.56;5113337;28;20030;-43
2022/08/23 03:03:55;;;;;;;21.25;14.90;;;;;;;14.10;100.00;101281.56;5113366;28;20030;-43
2022/08/23 03:06:21;;;;;;;22.60;17.17;;;;;;;14.04;100.00;101279.72;5112081;28;20019;-42
2022/08/23 03:08:47;;;;;;;20.67;16.10;;;;;;;14.09;100.00;101287.59;5113443;28;20383;-43
2022/08/23 03:11:15;;;;;;;22.00;17.15;;;;;;;14.06;100.00;101285.81;5113346;28;20015;-42
2022/08/23 03:13:42;;;;;;;19.88;15.90;;;;;;;14.04;100.00;101290.09;5112164;28;20531;-45
2022/08/23 03:16:09;;;;;;;28.40;18.20;;;;;;;14.07;100.00;101295.34;5113316;28;20066;-42
2022/08/23 03:18:38;;;;;;;23.45;17.50;;;;;;;14.12;100.00;101304.06;5112797;28;20289;-43
2022/08/23 03:21:05;;;;;;;27.20;17.80;;;;;;;14.20;100.00;101288.69;5112568;28;20044;-48
2022/08/23 03:23:31;;;;;;;28.30;17.80;;;;;;;14.21;100.00;101297.38;5112952;28;20035;-43
2022/08/23 03:25:58;;;;;;;24.27;17.83;;;;;;;14.32;100.00;101290.69;5114008;28;20100;-43
2022/08/23 03:28:24;;;;;;;25.57;18.40;;;;;;;14.41;100.00;101298.66;5116230;28;20050;-45
2022/08/23 03:30:50;;;;;;;24.02;19.10;;;;;;;14.46;100.00;101294.44;5117202;28;20031;-44
2022/08/23 03:33:15;;;;;;;21.10;17.88;;;;;;;14.57;100.00;101291.19;5116849;28;20378;-46
2022/08/23 03:35:41;;;;;;;23.27;17.85;;;;;;;14.60;100.00;101293.84;5116211;28;20157;-42
2022/08/23 03:38:07;;;;;;;25.38;18.27;;;;;;;14.59;100.00;101297.28;5116763;28;20078;-46
2022/08/23 03:40:33;;;;;;;21.17;18.02;;;;;;;14.61;100.00;101298.19;5116874;28;20028;-43
2022/08/23 03:43:00;;;;;;;23.15;17.33;;;;;;;14.58;99.89;101296.41;5116070;28;20489;-43
2022/08/23 03:45:25;;;;;;;20.17;16.83;;;;;;;14.58;100.00;101292.97;5116611;27;20538;-44
2022/08/23 03:47:51;;;;;;;24.40;17.50;;;;;;;14.62;100.00;101294.75;5116101;28;20158;-43
2022/08/23 03:50:16;;;;;;;23.90;17.50;;;;;;;14.62;100.00;101298.22;5116675;28;20047;-42
2022/08/23 03:52:41;;;;;;;20.40;16.83;;;;;;;14.61;100.00;101295.59;5116769;28;20069;-44
2022/08/23 03:55:07;;;;;;;20.27;16.50;;;;;;;14.60;100.00;101293.84;5116079;28;20072;-43
2022/08/23 03:57:33;;;;;;;19.17;16.58;;;;;;;14.62;100.00;101299.94;5116365;28;20035;-43
2022/08/23 03:59:58;;;;;;;19.80;16.85;;;;;;;14.58;100.00;101293.81;5116573;28;20027;-43
2022/08/23 04:02:24;;;;;;;25.85;17.23;;;;;;;14.59;100.00;101297.28;5115302;28;20030;-45
2022/08/23 04:04:49;;;;;;;22.25;17.13;;;;;;;14.58;100.00;101299.00;5116681;28;20077;-47
2022/08/23 04:07:21;;;;;;;22.90;17.05;;;;;;;14.52;100.00;101298.88;5116649;28;20020;-43
2022/08/23 04:09:46;;;;;;;20.08;16.90;;;;;;;14.49;100.00;101304.00;5115717;28;20024;-42
2022/08/23 04:12:12;;;;;;;21.45;16.40;;;;;;;14.50;100.00;101300.59;5116434;28;20420;-44
2022/08/23 04:14:37;;;;;;;20.23;16.27;;;;;;;14.47;100.00;101298.81;5116014;28;20032;-47
2022/08/23 04:17:02;;;;;;;19.95;16.20;;;;;;;14.53;100.00;101310.16;5115315;28;20027;-43
2022/08/23 04:19:28;;;;;;;25.13;19.13;;;;;;;14.52;100.00;101309.25;5116068;28;20045;-44
2022/08/23 04:21:53;;;;;;;22.38;17.92;;;;;;;14.52;100.00;101310.97;5116283;28;20024;-43
2022/08/23 04:24:19;;;;;;;22.67;17.90;;;;;;;14.53;100.00;101307.56;5115429;28;20035;-43
2022/08/23 04:26:44;;;;;;;24.88;20.17;;;;;;;14.59;100.00;101310.25;5115679;28;20027;-47
2022/08/23 04:29:13;;;;;;;19.55;17.35;;;;;;;14.59;100.00;101305.94;5115967;28;20493;-43
2022/08/23 04:31:39;;;;;;;20.90;17.73;;;;;;;14.61;100.00;101311.16;5114854;28;20023;-44
2022/08/23 04:34:04;;;;;;;21.60;18.40;;;;;;;14.60;100.00;101309.41;5116010;27;20027;-47
2022/08/23 04:36:34;;;;;;;23.75;19.83;;;;;;;14.61;100.00;101308.56;5115363;28;20049;-46
2022/08/23 04:38:59;;;;;;;20.55;18.45;;;;;;;14.66;100.00;101312.16;5114221;28;20049;-45
2022/08/23 04:44:08;;;;;;;19.80;17.80;;;;;;;14.76;100.00;101324.47;5115244;28;20100;-42
2022/08/23 04:46:34;;;;;;;21.25;17.60;;;;;;;14.75;100.00;101312.34;5115709;28;20023;-47
2022/08/23 04:48:59;;;;;;;21.50;17.52;;;;;;;14.80;100.00;101321.09;5115664;28;20028;-46
2022/08/23 04:51:25;;;;;;;23.75;19.10;;;;;;;14.81;100.00;101322.00;5114723;28;20468;-44
2022/08/23 04:53:50;;;;;;;27.85;20.10;;;;;;;14.88;100.00;101320.38;5115314;28;20030;-45
2022/08/23 04:56:15;;;;;;;21.83;18.95;;;;;;;14.94;100.00;101330.91;5115689;28;20024;-44
2022/08/23 04:58:40;;;;;;;23.17;19.45;;;;;;;15.01;100.00;101330.16;5114279;28;20382;-47
2022/08/23 05:01:09;;;;;;;21.55;17.90;;;;;;;15.03;100.00;101333.66;5115669;28;20106;-48
2022/08/23 05:03:34;;;;;;;21.38;19.15;;;;;;;15.10;100.00;101330.31;5115045;28;20481;-45
2022/08/23 05:06:00;;;;;;;23.48;18.48;;;;;;;15.15;100.00;101331.28;5114698;28;20065;-44
2022/08/23 05:08:26;;;;;;;27.23;19.45;;;;;;;15.22;99.99;101331.41;5115401;28;20028;-45
2022/08/23 05:10:52;;;;;;;23.17;19.08;;;;;;;15.21;100.00;101337.44;5115111;27;20046;-46
2022/08/23 05:13:17;;;;;;;24.67;19.92;;;;;;;15.24;100.00;101327.13;5114304;28;20394;-46
2022/08/23 05:15:43;;;;;;;24.10;20.00;;;;;;;15.23;100.00;101330.56;5115144;28;20019;-48
2022/08/23 05:18:08;;;;;;;25.00;18.77;;;;;;;15.28;100.00;101336.69;5115186;28;20149;-43
2022/08/23 05:20:34;;;;;;;24.02;18.45;;;;;;;15.29;100.00;101328.94;5114170;28;20020;-44
2022/08/23 05:23:00;;;;;;;25.33;19.02;;;;;;;15.31;100.00;101336.75;5115095;28;20530;-48
2022/08/23 05:25:48;;;;;;;23.90;19.00;;;;;;;15.33;100.00;101326.41;5115007;28;20526;-48
2022/08/23 05:28:11;;;;;;;26.42;18.95;;;;;;;15.34;100.00;101331.63;5114070;28;20059;-48
2022/08/23 05:30:36;;;;;;;23.52;18.52;;;;;;;15.35;100.00;101330.78;5114828;28;20108;-44
2022/08/23 05:33:01;;;;;;;25.05;19.83;;;;;;;15.41;100.00;101336.06;5114754;28;20180;-45
2022/08/23 05:35:27;;;;;;;20.65;18.17;;;;;;;15.43;100.00;101336.97;5114063;28;20039;-43
2022/08/23 05:37:52;;;;;;;20.52;17.65;;;;;;;15.52;100.00;101332.78;5114319;28;20050;-47
2022/08/23 05:40:17;;;;;;;22.23;19.25;;;;;;;15.54;100.00;101346.69;5114677;28;20462;-44
2022/08/23 05:42:43;;;;;;;22.60;20.20;;;;;;;15.63;100.00;101352.03;5113768;28;20024;-47
2022/08/23 05:45:09;;;;;;;20.98;18.50;;;;;;;15.81;100.00;101361.88;5114513;28;20030;-47
2022/08/23 05:47:34;;;;;;;21.73;19.35;;;;;;;15.93;100.00;101371.59;5113568;28;20024;-44
2022/08/23 05:50:00;;;;;;;22.33;19.80;;;;;;;16.04;100.00;101358.78;5114673;28;20036;-46
2022/08/23 05:52:26;;;;;;;21.92;19.42;;;;;;;16.20;100.00;101373.72;5114591;28;20027;-47
2022/08/23 05:54:51;;;;;;;22.10;18.65;;;;;;;16.33;100.00;101380.00;5113290;28;20068;-47
2022/08/23 05:57:16;;;;;;;22.05;19.73;;;;;;;16.45;100.00;101372.38;5114444;28;20026;-48
2022/08/23 05:59:42;;;;;;;23.77;20.52;;;;;;;16.61;100.00;101377.78;5113986;28;20023;-46
2022/08/23 06:02:07;;;;;;;22.10;19.65;;;;;;;16.73;100.00;101382.25;5113391;28;20031;-46
2022/08/23 06:04:32;;;;;;;25.80;20.17;;;;;;;16.72;98.85;101385.72;5113945;28;20019;-46
2022/08/23 06:06:58;;;;;;;23.23;17.85;;;;;;;16.89;93.80;101388.56;5114014;28;20482;-47
2022/08/23 06:09:23;;;;;;;23.35;18.27;;;;;;;16.97;94.07;101381.72;5113179;28;20463;-48
2022/08/23 06:11:49;;;;;;;23.02;18.10;;;;;;;17.03;92.63;101381.81;5113571;28;20118;-48
2022/08/23 06:14:14;;;;;;;26.27;19.50;;;;;;;17.08;91.55;101380.13;5114178;28;20023;-44
2022/08/23 06:16:43;;;;;;;23.35;18.70;;;;;;;17.18;90.93;101385.44;5113080;28;20020;-48
2022/08/23 06:19:09;;;;;;;28.30;19.40;;;;;;;17.23;90.22;101383.75;5113964;28;20038;-43
2022/08/23 06:21:36;;;;;;;32.83;20.77;;;;;;;17.27;89.31;101386.41;5113982;27;20027;-47
2022/08/23 06:24:02;;;;;;;26.70;19.48;;;;;;;17.32;89.00;101394.28;5112892;28;20538;-47
2022/08/23 06:26:33;;;;;;;26.45;20.80;;;;;;;17.27;88.80;101382.91;5114040;28;20016;-46
2022/08/23 06:29:02;;;;;;;29.15;21.10;;;;;;;17.27;89.23;101390.75;5113590;28;20119;-47
2022/08/23 06:31:44;;;;;;;26.05;21.02;;;;;;;17.23;90.64;101392.44;5113039;28;20031;-47
2022/08/23 06:34:33;;;;;;;26.40;21.20;;;;;;;17.23;89.70;101388.97;5113850;28;20103;-48
2022/08/23 06:37:01;;;;;;;32.75;22.67;;;;;;;17.20;90.55;101394.16;5112549;28;20081;-43
2022/08/23 06:39:30;;;;;;;28.60;22.70;;;;;;;17.18;90.95;101390.66;5113630;28;20034;-47
2022/08/23 06:42:15;;;;;;;33.22;24.67;;;;;;;17.22;90.44;101392.41;5113308;28;20043;-47
2022/08/23 06:44:40;;;;;;;38.50;26.63;;;;;;;17.24;90.67;101398.53;5112627;28;20110;-43
2022/08/23 06:47:06;;;;;;;32.92;28.15;;;;;;;17.32;89.34;101403.81;5113393;28;20068;-48
2022/08/23 06:49:32;;;;;;;34.53;28.65;;;;;;;17.34;88.71;101391.66;5113589;28;20027;-47
2022/08/23 06:51:59;;;;;;;37.38;30.05;;;;;;;17.38;88.13;101401.28;5112543;28;20038;-44
2022/08/23 06:54:27;;;;;;;36.10;29.73;;;;;;;17.41;88.29;101399.56;5113610;28;20048;-47
2022/08/23 06:56:54;;;;;;;35.55;30.35;;;;;;;17.52;87.98;101396.19;5112908;28;20486;-46
2022/08/23 06:59:20;;;;;;;35.20;28.38;;;;;;;17.64;87.06;101396.31;5112470;28;20034;-45
2022/08/23 07:01:51;;;;;;;31.08;25.55;;;;;;;17.77;83.96;101392.09;5112420;28;20028;-48
2022/08/23 07:04:20;;;;;;;27.55;23.63;;;;;;;17.89;82.14;101391.31;5113616;28;20030;-46
2022/08/23 07:06:45;;;;;;;34.67;25.40;;;;;;;18.06;83.26;101386.25;5112227;28;20075;-46
2022/08/23 07:09:12;;;;;;;30.73;24.13;;;;;;;18.15;81.67;101393.28;5113224;28;20095;-47
2022/08/23 07:11:38;;;;;;;32.03;22.43;;;;;;;18.35;79.38;101385.59;5113321;28;20032;-46
2022/08/23 07:14:06;;;;;;;29.17;23.85;;;;;;;18.49;79.05;101388.25;5112068;28;20284;-47
2022/08/23 07:16:48;;;;;;;26.08;23.25;;;;;;;18.67;79.83;101398.81;5113401;28;20093;-45
2022/08/23 07:19:15;;;;;;;32.92;25.67;;;;;;;18.78;77.44;101400.59;5112392;28;20032;-48
2022/08/23 07:21:41;;;;;;;30.98;25.08;;;;;;;18.84;77.75;101400.63;5112953;28;20173;-44
2022/08/23 07:24:08;;;;;;;33.88;26.00;;;;;;;19.00;77.46;101402.44;5113161;28;20027;-46
2022/08/23 07:26:34;;;;;;;32.42;24.27;;;;;;;19.10;76.46;101403.38;5112174;28;20047;-48
2022/08/23 07:29:02;;;;;;;33.15;25.63;;;;;;;19.19;76.00;101407.75;5112948;28;20296;-45
2022/08/23 07:31:31;;;;;;;30.73;23.92;;;;;;;19.31;75.54;101406.91;5113244;28;20058;-44
2022/08/23 07:33:58;;;;;;;30.33;24.63;;;;;;;19.47;75.35;101407.78;5112048;28;20085;-44
2022/08/23 07:36:25;;;;;;;28.73;21.80;;;;;;;19.53;74.09;101408.66;5112755;28;20466;-45
2022/08/23 07:38:52;;;;;;;27.17;19.83;;;;;;;19.68;71.64;101405.22;5112615;28;20463;-43
2022/08/23 07:41:18;;;;;;;28.40;19.55;;;;;;;19.76;72.23;101406.97;5112127;28;20044;-44
2022/08/23 07:43:43;;;;;;;26.13;19.60;;;;;;;19.92;73.29;101415.72;5113013;28;20035;-46
2022/08/23 07:46:10;;;;;;;27.90;19.02;;;;;;;19.97;71.24;101414.81;5112958;28;20027;-47
2022/08/23 07:48:35;;;;;;;25.75;19.15;;;;;;;20.14;71.78;101421.81;5112246;28;20046;-43
2022/08/23 07:51:05;;;;;;;25.70;18.67;;;;;;;20.24;71.01;101418.31;5112600;28;20459;-48
2022/08/23 07:53:31;;;;;;;25.58;19.67;;;;;;;20.36;71.40;101423.53;5112879;28;20111;-47
2022/08/23 07:55:57;;;;;;;24.23;19.35;;;;;;;20.39;70.69;101428.75;5111692;28;20028;-48
2022/08/23 07:58:23;;;;;;;26.17;19.50;;;;;;;20.59;70.52;101429.59;5112922;28;20027;-48
2022/08/23 08:00:50;;;;;;;27.13;19.15;;;;;;;20.61;70.12;101423.47;5112759;28;20030;-47
2022/08/23 08:03:16;;;;;;;27.00;19.30;;;;;;;20.68;70.47;101426.94;5112034;28;20372;-44
2022/08/23 08:05:42;;;;;;;23.95;19.33;;;;;;;20.72;72.61;101432.19;5112607;28;20022;-43
2022/08/23 08:08:07;;;;;;;26.88;18.88;;;;;;;20.95;71.13;101431.22;5111956;28;20031;-48
2022/08/23 08:10:37;;;;;;;27.25;19.48;;;;;;;21.05;69.68;101430.31;5112694;28;20015;-48
2022/08/23 08:13:02;;;;;;;23.40;19.75;;;;;;;21.21;69.79;101436.38;5113143;28;20463;-47
2022/08/23 08:15:28;;;;;;;32.25;19.65;;;;;;;21.34;69.40;101439.78;5115672;27;20041;-47
2022/08/23 08:17:53;;;;;;;27.30;19.63;;;;;;;21.38;68.45;101441.50;5115875;28;20040;-47
2022/08/23 08:20:19;;;;;;;28.55;18.77;;;;;;;21.49;68.58;101440.56;5116152;28;20035;-46
2022/08/23 08:22:46;;;;;;;27.85;19.02;;;;;;;21.65;68.63;101446.59;5115222;28;20024;-47
2022/08/23 08:25:12;;;;;;;25.83;18.42;;;;;;;21.85;68.11;101441.22;5116203;28;20031;-47
2022/08/23 08:27:37;;;;;;;26.63;16.92;;;;;;;21.86;64.49;101441.22;5116279;28;20414;-46
2022/08/23 08:30:04;;;;;;;25.13;16.95;;;;;;;22.00;63.36;101445.47;5115097;28;20028;-44
2022/08/23 08:32:30;;;;;;;;;;;;;;;22.08;66.97;101440.16;5116267;28;20462;-47
2022/08/23 08:34:55;;;;;;;25.70;17.27;;;;;;;22.32;64.38;101445.19;5115813;28;19957;-46
2022/08/23 08:37:21;;;;;;;25.42;17.17;;;;;;;22.45;65.52;101440.72;5114770;28;20372;-43
2022/08/23 08:39:46;;;;;;;28.42;16.63;;;;;;;22.66;64.78;101447.50;5115514;28;20364;-46
2022/08/23 08:42:11;;;;;;;24.98;17.80;;;;;;;22.79;62.78;101445.59;5116001;28;20024;-43
2022/08/23 08:44:50;;;;;;;27.57;18.00;;;;;;;22.97;62.29;101448.88;5115103;28;20063;-43
2022/08/23 08:47:25;;;;;;;27.25;17.52;;;;;;;23.10;62.80;101447.84;5115781;28;20303;-49
2022/08/23 08:50:01;;;;;;;25.65;18.27;;;;;;;23.32;61.94;101445.81;5115451;28;20030;-42
2022/08/23 08:52:32;;;;;;;29.50;18.98;;;;;;;23.62;61.72;101454.13;5114719;28;20443;-42
2022/08/23 08:55:11;;;;;;;28.15;17.52;;;;;;;23.65;61.39;101451.47;5115321;28;20481;-45
2022/08/23 08:57:41;;;;;;;21.17;16.17;;;;;;;23.93;59.58;101448.41;5114759;28;20193;-46
2022/08/23 09:00:14;;;;;;;21.15;15.90;;;;;;;24.05;58.56;101452.59;5115159;28;20023;-45
2022/08/23 09:02:41;;;;;;;24.30;14.48;;;;;;;24.17;56.70;101462.09;5115327;28;20386;-44
2022/08/23 09:05:30;;;;;;;24.00;14.88;;;;;;;24.38;57.43;101459.97;5114592;28;20023;-44
2022/08/23 09:08:01;;;;;;;25.50;14.13;;;;;;;24.69;57.18;101462.03;5114872;28;20401;-44
2022/08/23 09:10:49;;;;;;;18.75;13.45;;;;;;;24.80;57.85;101467.97;5115325;28;20102;-49
2022/08/23 09:13:44;;;;;;;20.92;12.52;;;;;;;24.93;56.05;101466.81;5114630;28;20039;-43
2022/08/23 09:16:23;;;;;;;17.23;11.23;;;;;;;25.06;54.70;101461.28;5114969;28;20026;-48
2022/08/23 09:18:50;;;;;;;16.60;9.48;;;;;;;25.39;54.56;101459.69;5114039;28;20055;-44
2022/08/23 09:21:16;;;;;;;16.43;8.93;;;;;;;25.63;55.21;101466.19;5114958;28;20031;-43
2022/08/23 09:23:47;;;;;;;17.27;7.28;;;;;;;25.80;53.31;101468.41;5114900;28;20360;-43
2022/08/23 09:26:17;;;;;;;14.23;7.00;;;;;;;25.84;51.40;101469.22;5114292;28;20063;-46
2022/08/23 09:28:44;;;;;;;10.48;6.07;;;;;;;25.79;50.18;101474.59;5114784;28;20059;-43
2022/08/23 09:31:10;;;;;;;;;;;;;;;25.91;53.49;101469.94;5115068;28;20072;-43
2022/08/23 09:33:42;;;;;;;14.00;6.45;;;;;;;25.89;51.36;101469.97;5113960;28;19911;-43
2022/08/23 09:36:20;;;;;;;15.90;6.78;;;;;;;25.97;51.52;101475.06;5114675;28;20039;-43
2022/08/23 09:38:54;;;;;;;12.95;5.82;;;;;;;26.08;49.38;101478.34;5114540;28;20050;-45
2022/08/23 09:41:32;;;;;;;12.90;5.18;;;;;;;26.19;48.93;101471.91;5114008;28;20023;-44
2022/08/23 09:44:01;;;;;;;8.85;4.60;;;;;;;26.25;49.78;101475.25;5114569;28;20484;-44
2022/08/23 09:46:29;;;;;;;14.55;4.72;;;;;;;26.82;48.83;101474.63;5114568;28;20467;-43
2022/08/23 09:48:57;;;;;;;13.77;5.63;;;;;;;26.98;48.91;101470.66;5113844;28;20102;-44
2022/08/23 09:51:41;;;;;;;15.05;5.78;;;;;;;27.10;47.58;101483.53;5114489;28;20370;-44
2022/08/23 09:54:23;;;;;;;14.43;5.43;;;;;;;27.53;47.94;101473.44;5113359;28;20521;-44
2022/08/23 09:56:56;;;;;;;18.30;5.50;;;;;;;28.51;44.70;101460.47;5114017;28;20102;-45
2022/08/23 09:59:43;;;;;;;16.27;6.07;;;;;;;28.67;46.16;101462.59;5114346;28;20069;-45
2022/08/23 10:02:34;;;;;;;17.10;6.28;;;;;;;29.38;43.31;101457.25;5113071;28;20106;-46
2022/08/23 10:05:26;;;;;;;17.33;4.95;;;;;;;29.90;42.76;101462.25;5113373;28;20486;-49
2022/08/23 10:07:59;;;;;;;11.95;3.80;;;;;;;30.13;39.44;101460.41;5113162;28;20027;-44
2022/08/23 10:10:27;;;;;;;8.15;2.33;;;;;;;30.77;37.46;101462.03;5113970;28;20394;-48
2022/08/23 10:12:54;;;;;;;5.75;2.85;;;;;;;31.20;36.01;101456.53;5113796;28;20038;-46
2022/08/23 10:15:25;;;;;;;12.02;3.33;;;;;;;31.15;36.23;101454.06;5113108;28;20027;-48
2022/08/23 10:18:03;;;;;;;12.48;3.25;;;;;;;31.32;37.87;101455.06;5113857;28;20038;-45
2022/08/23 10:20:36;;;;;;;9.68;3.03;;;;;;;31.78;36.64;101458.16;5113784;28;20102;-48
2022/08/23 10:23:22;;;;;;;12.23;3.10;;;;;;;32.22;34.93;101456.84;5112776;28;20031;-47
2022/08/23 10:25:56;;;;;;;9.27;3.28;;;;;;;32.28;34.50;101452.97;5113708;28;20027;-48
2022/08/23 10:31:36;;;;;;;15.52;4.55;;;;;;;33.54;34.13;101458.56;5114129;28;20039;-47
2022/08/23 10:34:34;;;;;;;9.93;4.20;;;;;;;33.53;34.37;101458.69;5113337;28;20019;-48
2022/08/23 10:37:26;;;;;;;12.13;3.45;;;;;;;33.82;31.82;101454.34;5111648;28;20047;-47
2022/08/23 10:40:22;;;;;;;10.27;2.97;;;;;;;33.31;32.23;101455.44;5113178;28;20036;-46
2022/08/23 10:43:12;;;;;;;6.53;2.95;;;;;;;33.59;33.16;101445.81;5113015;28;20493;-47
2022/08/23 10:45:41;;;;;;;13.00;3.70;;;;;;;32.49;32.21;101449.19;5113635;28;20044;-45
2022/08/23 10:48:27;;;;;;;8.43;3.20;;;;;;;32.61;33.20;101442.31;5113177;28;20035;-47
2022/08/23 10:50:58;;;;;;;;;;;;;;;33.08;34.90;101446.03;5112748;28;20035;-47
2022/08/23 10:53:58;;;;;;;6.47;3.10;;;;;;;33.71;33.65;101444.22;5113552;28;19995;-44
2022/08/23 10:56:24;;;;;;;11.55;3.25;;;;;;;33.48;31.60;101438.44;5093313;28;20035;-44
2022/08/23 10:59:00;;;;;;;12.50;3.58;;;;;;;33.58;31.96;101435.22;5112436;28;20062;-46
2022/08/23 11:02:00;;;;;;;10.10;2.87;;;;;;;33.89;33.02;101436.09;5113346;28;20036;-48
2022/08/23 11:04:36;;;;;;;8.40;2.08;;;;;;;32.48;31.48;101425.25;5112594;28;20026;-46
2022/08/23 11:07:14;;;;;;;;;;;;;;;32.14;34.21;101433.22;5113477;28;20129;-44
2022/08/23 11:10:14;;;;;;;7.13;2.40;;;;;;;30.94;34.68;101434.63;5113132;28;20328;-49
2022/08/23 11:12:56;;;;;;;9.32;2.47;;;;;;;30.70;35.61;101428.66;5092233;28;20164;-48
2022/08/23 11:15:44;;;;;;;11.65;2.47;;;;;;;30.15;37.57;101437.25;5113099;28;20067;-47
2022/08/23 11:18:32;;;;;;;6.78;2.42;;;;;;;29.32;38.05;101433.59;5103415;28;20063;-46
2022/08/23 11:21:00;;;;;;;11.18;3.20;;;;;;;29.93;36.03;101434.66;5112539;28;20038;-48
2022/08/23 11:23:57;;;;;;;7.43;2.30;;;;;;;31.27;36.86;101433.13;5113154;28;20080;-46
2022/08/23 11:26:25;;;;;;;9.05;2.20;;;;;;;31.53;33.74;101432.72;5112276;28;20023;-43
2022/08/23 11:29:06;;;;;;;9.40;2.50;;;;;;;32.14;34.91;101435.88;5112976;28;20088;-44
2022/08/23 11:31:57;;;;;;;7.97;2.15;;;;;;;33.19;32.98;101433.88;5113158;28;20099;-48
2022/08/23 11:34:24;;;;;;;6.50;2.22;;;;;;;34.17;29.01;101423.75;5112315;28;20031;-44